Time,TemperatureF,DewpointF,PressureIn,WindDirection,WindDirectionDegrees,WindSpeedMPH,WindSpeedGustMPH,Humidity,HourlyPrecipIn,Conditions,Clouds,dailyrainin,SoftwareType,DateUTC
2013-12-10 00:13:00,9.2,2.0,30.49,NE,53,1.0,1.0,71,0.00,,,0.00,weatherlink.com 1.10,2013-12-10 08:13:00,
2013-12-10 00:25:00,8.2,2.0,30.48,NE,52,0.0,0.0,74,0.00,,,0.00,weatherlink.com 1.10,2013-12-10 08:25:00,
2013-12-10 00:43:00,8.7,2.0,30.48,NNW,347,0.0,1.0,74,0.00,,,0.00,weatherlink.com 1.10,2013-12-10 08:43:00,
2013-12-10 00:58:00,9.6,3.0,30.48,ESE,118,0.0,1.0,73,0.00,,,0.00,weatherlink.com 1.10,2013-12-10 08:58:00,
2013-12-10 01:13:00,10.6,3.0,30.48,ESE,110,0.0,1.0,70,0.00,,,0.00,weatherlink.com 1.10,2013-12-10 09:13:00,
2013-12-10 01:28:00,11.0,3.0,30.47,ESE,110,0.0,1.0,71,0.00,,,0.00,weatherlink.com 1.10,2013-12-10 09:28:00,
2013-12-10 01:43:00,12.1,3.0,30.48,South,178,0.0,1.0,68,0.00,,,0.00,weatherlink.com 1.10,2013-12-10 09:43:00,
2013-12-10 01:58:00,10.7,3.0,30.48,NE,54,0.0,1.0,70,0.00,,,0.00,weatherlink.com 1.10,2013-12-10 09:58:00,
2013-12-10 02:13:00,10.7,3.0,30.48,ESE,113,0.0,1.0,70,0.00,,,0.00,weatherlink.com 1.10,2013-12-10 10:13:00,
2013-12-10 02:28:00,11.3,4.0,30.48,ESE,113,0.0,1.0,71,0.00,,,0.00,weatherlink.com 1.10,2013-12-10 10:28:00,
2013-12-10 02:43:00,11.6,3.0,30.48,ESE,117,0.0,1.0,68,0.00,,,0.00,weatherlink.com 1.10,2013-12-10 10:43:00,
2013-12-10 02:58:00,10.3,3.0,30.49,East,99,0.0,1.0,71,0.00,,,0.00,weatherlink.com 1.10,2013-12-10 10:58:00,
2013-12-10 03:13:00,10.4,3.0,30.49,WNW,282,0.0,1.0,72,0.00,,,0.00,weatherlink.com 1.10,2013-12-10 11:13:00,
2013-12-10 03:29:00,11.0,4.0,30.48,SSE,153,0.0,1.0,72,0.00,,,0.00,weatherlink.com 1.10,2013-12-10 11:29:00,
2013-12-10 03:44:00,10.6,3.0,30.48,North,354,0.0,1.0,72,0.00,,,0.00,weatherlink.com 1.10,2013-12-10 11:44:00,
2013-12-10 03:59:00,9.8,3.0,30.49,NE,48,0.0,1.0,73,0.00,,,0.00,weatherlink.com 1.10,2013-12-10 11:59:00,
2013-12-10 04:15:00,9.4,3.0,30.49,NE,48,0.0,1.0,74,0.00,,,0.00,weatherlink.com 1.10,2013-12-10 12:15:00,
2013-12-10 04:30:00,9.2,3.0,30.50,NE,48,0.0,0.0,74,0.00,,,0.00,weatherlink.com 1.10,2013-12-10 12:30:00,
2013-12-10 04:45:00,9.3,3.0,30.50,WSW,257,0.0,1.0,75,0.00,,,0.00,weatherlink.com 1.10,2013-12-10 12:45:00,
2013-12-10 05:00:00,9.5,3.0,30.49,SW,229,0.0,1.0,75,0.00,,,0.00,weatherlink.com 1.10,2013-12-10 13:00:00,
2013-12-10 05:16:00,10.3,4.0,30.49,ENE,76,0.0,1.0,75,0.00,,,0.00,weatherlink.com 1.10,2013-12-10 13:16:00,
2013-12-10 05:30:00,10.9,4.0,30.50,SSW,210,0.0,1.0,75,0.00,,,0.00,weatherlink.com 1.10,2013-12-10 13:30:00,
2013-12-10 05:46:00,11.3,5.0,30.50,ESE,119,0.0,1.0,74,0.00,,,0.00,weatherlink.com 1.10,2013-12-10 13:46:00,
2013-12-10 06:01:00,11.7,5.0,30.50,SSE,163,0.0,1.0,73,0.00,,,0.00,weatherlink.com 1.10,2013-12-10 14:01:00,
2013-12-10 06:18:00,11.9,5.0,30.51,SSW,209,0.0,1.0,73,0.00,,,0.00,weatherlink.com 1.10,2013-12-10 14:18:00,
2013-12-10 06:31:00,10.4,4.0,30.52,North,8,0.0,1.0,74,0.00,,,0.00,weatherlink.com 1.10,2013-12-10 14:31:00,
2013-12-10 06:48:00,11.0,4.0,30.52,WNW,283,0.0,1.0,74,0.00,,,0.00,weatherlink.com 1.10,2013-12-10 14:48:00,
2013-12-10 07:03:00,10.7,4.0,30.52,SE,124,0.0,1.0,74,0.00,,,0.00,weatherlink.com 1.10,2013-12-10 15:03:00,
2013-12-10 07:18:00,11.3,5.0,30.52,NE,56,1.0,1.0,74,0.00,,,0.00,weatherlink.com 1.10,2013-12-10 15:18:00,
2013-12-10 07:33:00,11.2,5.0,30.51,WSW,238,0.0,1.0,76,0.00,,,0.00,weatherlink.com 1.10,2013-12-10 15:33:00,
2013-12-10 07:48:00,9.5,3.0,30.52,NNE,31,0.0,1.0,74,0.00,,,0.00,weatherlink.com 1.10,2013-12-10 15:48:00,
2013-12-10 08:03:00,9.2,3.0,30.53,ENE,70,0.0,1.0,76,0.00,,,0.00,weatherlink.com 1.10,2013-12-10 16:03:00,
2013-12-10 08:18:00,9.1,3.0,30.54,ENE,70,0.0,1.0,77,0.00,,,0.00,weatherlink.com 1.10,2013-12-10 16:18:00,
2013-12-10 08:33:00,10.4,5.0,30.55,NNE,15,0.0,1.0,77,0.00,,,0.00,weatherlink.com 1.10,2013-12-10 16:33:00,
2013-12-10 08:49:00,12.1,7.0,30.55,NNE,15,0.0,1.0,80,0.00,,,0.00,weatherlink.com 1.10,2013-12-10 16:49:00,
2013-12-10 09:04:00,13.4,8.0,30.55,NNE,16,0.0,1.0,78,0.00,,,0.00,weatherlink.com 1.10,2013-12-10 17:04:00,
2013-12-10 09:19:00,14.9,9.0,30.55,SW,219,0.0,1.0,76,0.00,,,0.00,weatherlink.com 1.10,2013-12-10 17:19:00,
2013-12-10 09:34:00,16.3,9.0,30.56,SW,219,0.0,1.0,73,0.00,,,0.00,weatherlink.com 1.10,2013-12-10 17:34:00,
2013-12-10 09:50:00,18.4,10.0,30.56,ESE,107,0.0,1.0,70,0.00,,,0.00,weatherlink.com 1.10,2013-12-10 17:50:00,
2013-12-10 10:05:00,19.7,10.0,30.56,NNE,26,0.0,1.0,67,0.00,,,0.00,weatherlink.com 1.10,2013-12-10 18:05:00,
2013-12-10 10:20:00,20.0,11.0,30.57,East,91,0.0,2.0,67,0.00,,,0.00,weatherlink.com 1.10,2013-12-10 18:20:00,
2013-12-10 10:35:00,19.6,10.0,30.57,North,11,1.0,2.0,67,0.00,,,0.00,weatherlink.com 1.10,2013-12-10 18:35:00,
2013-12-10 10:53:00,20.1,10.0,30.57,NNW,342,1.0,3.0,66,0.00,,,0.00,weatherlink.com 1.10,2013-12-10 18:53:00,
2013-12-10 11:06:00,21.6,11.0,30.57,NE,39,0.0,2.0,65,0.00,,,0.00,weatherlink.com 1.10,2013-12-10 19:06:00,
2013-12-10 11:36:00,23.6,11.0,30.56,NE,39,1.0,4.0,60,0.00,,,0.00,weatherlink.com 1.10,2013-12-10 19:36:00,
2013-12-10 11:52:00,24.0,12.0,30.56,NE,41,0.0,2.0,61,0.00,,,0.00,weatherlink.com 1.10,2013-12-10 19:52:00,
2013-12-10 12:08:00,23.9,11.0,30.55,NE,35,1.0,3.0,59,0.00,,,0.00,weatherlink.com 1.10,2013-12-10 20:08:00,
2013-12-10 12:23:00,23.8,11.0,30.55,North,10,0.0,1.0,59,0.00,,,0.00,weatherlink.com 1.10,2013-12-10 20:23:00,
2013-12-10 12:38:00,23.8,10.0,30.54,ENE,63,0.0,2.0,57,0.00,,,0.00,weatherlink.com 1.10,2013-12-10 20:38:00,
2013-12-10 12:53:00,24.3,11.0,30.54,NE,44,0.0,2.0,57,0.00,,,0.00,weatherlink.com 1.10,2013-12-10 20:53:00,
2013-12-10 13:08:00,24.8,11.0,30.53,SSE,160,1.0,2.0,56,0.00,,,0.00,weatherlink.com 1.10,2013-12-10 21:08:00,
2013-12-10 13:23:00,25.2,11.0,30.53,ESE,102,0.0,1.0,55,0.00,,,0.00,weatherlink.com 1.10,2013-12-10 21:23:00,
2013-12-10 13:38:00,25.9,11.0,30.53,SE,132,1.0,3.0,53,0.00,,,0.00,weatherlink.com 1.10,2013-12-10 21:38:00,
2013-12-10 13:53:00,26.6,11.0,30.53,SE,130,0.0,3.0,53,0.00,,,0.00,weatherlink.com 1.10,2013-12-10 21:53:00,
2013-12-10 14:09:00,26.9,11.0,30.52,SSE,164,1.0,1.0,52,0.00,,,0.00,weatherlink.com 1.10,2013-12-10 22:09:00,
2013-12-10 14:24:00,27.0,11.0,30.52,South,180,0.0,2.0,52,0.00,,,0.00,weatherlink.com 1.10,2013-12-10 22:24:00,
2013-12-10 14:39:00,27.0,11.0,30.52,ESE,113,2.0,4.0,51,0.00,,,0.00,weatherlink.com 1.10,2013-12-10 22:39:00,
2013-12-10 14:55:00,26.5,10.0,30.52,SE,127,1.0,4.0,51,0.00,,,0.00,weatherlink.com 1.10,2013-12-10 22:55:00,
2013-12-10 15:10:00,26.1,11.0,30.52,ESE,109,0.0,3.0,52,0.00,,,0.00,weatherlink.com 1.10,2013-12-10 23:10:00,
2013-12-10 15:25:00,25.2,10.0,30.52,ESE,122,0.0,1.0,53,0.00,,,0.00,weatherlink.com 1.10,2013-12-10 23:25:00,
2013-12-10 15:40:00,23.4,10.0,30.52,ESE,122,0.0,0.0,56,0.00,,,0.00,weatherlink.com 1.10,2013-12-10 23:40:00,
2013-12-10 15:55:00,22.1,9.0,30.53,ESE,122,0.0,0.0,58,0.00,,,0.00,weatherlink.com 1.10,2013-12-10 23:55:00,
2013-12-10 16:11:00,21.2,9.0,30.53,WNW,302,0.0,1.0,59,0.00,,,0.00,weatherlink.com 1.10,2013-12-11 00:11:00,
2013-12-10 16:26:00,19.2,8.0,30.53,WNW,303,0.0,1.0,61,0.00,,,0.00,weatherlink.com 1.10,2013-12-11 00:26:00,
2013-12-10 16:41:00,17.8,7.0,30.54,WNW,303,0.0,1.0,62,0.00,,,0.00,weatherlink.com 1.10,2013-12-11 00:41:00,
2013-12-10 16:58:00,16.8,7.0,30.53,NW,314,0.0,0.0,66,0.00,,,0.00,weatherlink.com 1.10,2013-12-11 00:58:00,
2013-12-10 17:13:00,17.0,7.0,30.54,NW,314,0.0,0.0,66,0.00,,,0.00,weatherlink.com 1.10,2013-12-11 01:13:00,
2013-12-10 17:27:00,16.0,7.0,30.54,NW,314,0.0,0.0,68,0.00,,,0.00,weatherlink.com 1.10,2013-12-11 01:27:00,
2013-12-10 17:43:00,15.4,7.0,30.53,NW,311,0.0,0.0,68,0.00,,,0.00,weatherlink.com 1.10,2013-12-11 01:43:00,
2013-12-10 17:58:00,15.1,7.0,30.53,NW,311,0.0,0.0,70,0.00,,,0.00,weatherlink.com 1.10,2013-12-11 01:58:00,
2013-12-10 18:12:00,14.8,7.0,30.54,NW,311,0.0,0.0,70,0.00,,,0.00,weatherlink.com 1.10,2013-12-11 02:12:00,
2013-12-10 18:28:00,14.3,7.0,30.53,NW,311,0.0,0.0,74,0.00,,,0.00,weatherlink.com 1.10,2013-12-11 02:28:00,
2013-12-10 18:43:00,15.4,8.0,30.53,NW,311,0.0,0.0,71,0.00,,,0.00,weatherlink.com 1.10,2013-12-11 02:43:00,
2013-12-10 18:58:00,15.1,7.0,30.52,NW,311,0.0,0.0,70,0.00,,,0.00,weatherlink.com 1.10,2013-12-11 02:58:00,
2013-12-10 19:14:00,14.2,7.0,30.53,NW,311,0.0,0.0,73,0.00,,,0.00,weatherlink.com 1.10,2013-12-11 03:14:00,
2013-12-10 19:29:00,13.7,7.0,30.53,NW,311,0.0,0.0,74,0.00,,,0.00,weatherlink.com 1.10,2013-12-11 03:29:00,
2013-12-10 19:44:00,13.4,7.0,30.53,NW,311,0.0,0.0,75,0.00,,,0.00,weatherlink.com 1.10,2013-12-11 03:44:00,
2013-12-10 19:59:00,13.3,7.0,30.54,NW,311,0.0,0.0,76,0.00,,,0.00,weatherlink.com 1.10,2013-12-11 03:59:00,
2013-12-10 20:15:00,13.0,7.0,30.53,NW,311,0.0,0.0,76,0.00,,,0.00,weatherlink.com 1.10,2013-12-11 04:15:00,
2013-12-10 20:30:00,13.1,7.0,30.54,NNW,338,0.0,1.0,76,0.00,,,0.00,weatherlink.com 1.10,2013-12-11 04:30:00,
2013-12-10 20:45:00,13.5,7.0,30.54,NNW,338,0.0,1.0,76,0.00,,,0.00,weatherlink.com 1.10,2013-12-11 04:45:00,
2013-12-10 21:00:00,13.0,7.0,30.54,NNW,338,0.0,0.0,76,0.00,,,0.00,weatherlink.com 1.10,2013-12-11 05:00:00,
2013-12-10 21:15:00,12.6,6.0,30.55,NNW,338,0.0,0.0,76,0.00,,,0.00,weatherlink.com 1.10,2013-12-11 05:15:00,
2013-12-10 21:30:00,12.1,7.0,30.55,NNW,338,0.0,0.0,78,0.00,,,0.00,weatherlink.com 1.10,2013-12-11 05:30:00,
2013-12-10 21:46:00,11.4,6.0,30.55,NNW,338,0.0,1.0,79,0.00,,,0.00,weatherlink.com 1.10,2013-12-11 05:46:00,
2013-12-10 22:01:00,11.9,7.0,30.55,NNW,338,0.0,1.0,79,0.00,,,0.00,weatherlink.com 1.10,2013-12-11 06:01:00,
2013-12-10 22:18:00,12.2,7.0,30.55,NNW,338,0.0,1.0,78,0.00,,,0.00,weatherlink.com 1.10,2013-12-11 06:18:00,
2013-12-10 22:33:00,12.4,7.0,30.55,NE,36,0.0,1.0,79,0.00,,,0.00,weatherlink.com 1.10,2013-12-11 06:33:00,
2013-12-10 22:48:00,11.5,6.0,30.55,NE,36,0.0,0.0,78,0.00,,,0.00,weatherlink.com 1.10,2013-12-11 06:48:00,
2013-12-10 23:03:00,11.9,7.0,30.56,NE,37,0.0,1.0,79,0.00,,,0.00,weatherlink.com 1.10,2013-12-11 07:03:00,
2013-12-10 23:18:00,11.7,7.0,30.55,NE,37,0.0,0.0,80,0.00,,,0.00,weatherlink.com 1.10,2013-12-11 07:18:00,
2013-12-10 23:33:00,12.3,7.0,30.55,NNE,17,0.0,1.0,79,0.00,,,0.00,weatherlink.com 1.10,2013-12-11 07:33:00,
2013-12-10 23:47:00,12.5,7.0,30.55,NNE,16,0.0,1.0,80,0.00,,,0.00,weatherlink.com 1.10,2013-12-11 07:47:00,